In Rescue
 
July 13, 2020 10:53 PM EDT
Weather Information
Wind Direction
  ---
Wind Speed
  00 kt (0 mph)
Wind Gust
  00 kt (0 mph)
Altimeter
30.01 in
Visibility
4 SM
Temperature
20° C
68° F
Dewpoint
20° C
68° F
Humidity
100%
Sky Condition
Clear
MVFR

METAR KIMS 140253Z AUTO 00000KT 4SM CLR 20/20 A3001 RMK AO1

FAA Disclaimer: The data displayed is for advisory purposes only and is not to be used for flight planning or operations.